Página principal
METAR-TAF:

METAR-TAF

Aeroportos :

Aeroporto Internacional de Riga

Riga, Letónia

latitude: 56-55N, longitude: 023-58E, altura: 10 m

Observação actual do tempo

O boletim foi feito há 25 minutos, às 23:50 UTC
Vento calmo
Temperatura 2°C
Humidade 87%
Pressão 1025 hPa
Visibilidade 10 km ou mais
sem nuvens abaixo de 1500 metros e sem cumulonimbus

METAR: EVRA 212350Z 00000KT CAVOK 02/00 Q1025 NOSIG

Hora: 03:15 (00:15 UTC)

Previsão

O boletim foi feito há 1 hora e 13 minutos, às 23:02 UTC
Previsão válida de 22 às 00 UTC a 22 às 24 UTC
Vento 2 kt com direcção variável
Visibilidade 10 km ou mais
sem nuvens abaixo de 1500 metros e sem cumulonimbus
Tornando-se
de 22 às 08 UTC a 22 às 10 UTC
Vento 7 kt de sul

TAF: EVRA 212302Z 2200/2224 VRB02KT CAVOK BECMG 2208/2210 18007KT

Observações e previsões do tempo de mais de 4000 aeroportos (mensagens METAR e TAF).

As estações disponíveis são os pontos amarelos e vermelhos sobre o mapa.

Mova o rato sobre o mapa para ver o nome da estação.

Depois clique no ponto para visualizar as observações e previsões meteorológicas.

Para alterar o mapa : clique nos botões verdes com uma cruz preta para aumentar o zoom; no botão verde com uma pitada de zoom; ou nas setas verdes para mapas adjacentes.


METAR-TAF: